Time;durP1;ratioP1;P1;durP2;ratioP2;P2;SDS_P1;SDS_P2;PMS_P1;PMS_P2;Temp;Humidity;BMP_temperature;BMP_pressure;BME280_temperature;BME280_humidity;BME280_pressure;Samples;Min_cycle;Max_cycle;Signal;HPM_P1;HPM_P2
2023/04/20 00:01:49;;;;;;;;;;;;;;;7.64;100.00;100293.16;5590173;31;34274;-68
2023/04/20 00:04:52;;;;;;;;;;;;;;;7.58;100.00;100288.47;5590227;31;34576;-68
2023/04/20 00:07:54;;;;;;;;;;;;;;;7.65;100.00;100289.50;5589965;31;34073;-68
2023/04/20 00:10:57;;;;;;;;;;;;;;;7.61;100.00;100285.50;5590365;31;34188;-69
2023/04/20 00:13:59;;;;;;;;;;;;;;;7.64;100.00;100279.09;5590344;31;34980;-68
2023/04/20 00:17:02;;;;;;;;;;;;;;;7.63;100.00;100282.72;5590060;31;34988;-68
2023/04/20 00:20:05;;;;;;;;;;;;;;;7.56;100.00;100290.41;5590054;31;33685;-68
2023/04/20 00:23:07;;;;;;;;;;;;;;;7.43;100.00;100290.78;5589950;31;34205;-69
2023/04/20 00:26:09;;;;;;;;;;;;;;;7.27;100.00;100280.06;5590220;31;34198;-68
2023/04/20 00:29:13;;;;;;;;;;;;;;;7.49;100.00;100283.25;5589898;31;34286;-68
2023/04/20 00:32:16;;;;;;;;;;;;;;;7.43;100.00;100288.16;5589845;31;34186;-69
2023/04/20 00:35:19;;;;;;;;;;;;;;;7.33;100.00;100281.28;5589920;31;34144;-69
2023/04/20 00:38:21;;;;;;;;;;;;;;;7.23;100.00;100275.22;5590148;31;34418;-69
2023/04/20 00:41:25;;;;;;;;;;;;;;;7.13;100.00;100279.72;5589806;31;34835;-69
2023/04/20 00:44:27;;;;;;;;;;;;;;;7.01;100.00;100271.22;5576072;31;34929;-69
2023/04/20 00:47:30;;;;;;;;;;;;;;;6.91;100.00;100271.25;5589620;31;33877;-69
2023/04/20 00:50:33;;;;;;;;;;;;;;;6.88;100.00;100268.91;5589856;31;34868;-69
2023/04/20 00:53:36;;;;;;;;;;;;;;;6.89;100.00;100275.84;5589622;31;34300;-69
2023/04/20 00:56:38;;;;;;;;;;;;;;;6.83;100.00;100257.97;5589007;31;34209;-69
2023/04/20 00:59:42;;;;;;;;;;;;;;;6.78;100.00;100272.56;5589982;31;34186;-69
2023/04/20 01:02:44;;;;;;;;;;;;;;;6.82;100.00;100268.69;5589610;31;34824;-69
2023/04/20 01:05:47;;;;;;;;;;;;;;;6.84;100.00;100270.16;5589646;31;34322;-69
2023/04/20 01:08:50;;;;;;;;;;;;;;;6.86;100.00;100268.22;5589489;31;34257;-69
2023/04/20 01:11:53;;;;;;;;;;;;;;;6.76;100.00;100262.19;5589583;31;34843;-69
2023/04/20 01:14:56;;;;;;;;;;;;;;;6.71;100.00;100261.78;5589488;31;34286;-69
2023/04/20 01:17:59;;;;;;;;;;;;;;;6.65;100.00;100261.53;5589587;31;34536;-69
2023/04/20 01:21:01;;;;;;;;;;;;;;;6.60;100.00;100264.59;5589315;31;34830;-69
2023/04/20 01:24:05;;;;;;;;;;;;;;;6.82;100.00;100268.69;5589278;31;34214;-68
2023/04/20 01:27:08;;;;;;;;;;;;;;;6.97;100.00;100252.19;5589606;31;34222;-68
2023/04/20 01:30:11;;;;;;;;;;;;;;;7.05;100.00;100258.53;5589081;31;34726;-69
2023/04/20 01:33:13;;;;;;;;;;;;;;;6.93;100.00;100257.91;5589177;31;34823;-68
2023/04/20 01:36:16;;;;;;;;;;;;;;;6.93;100.00;100269.28;5589131;31;34184;-69
2023/04/20 01:39:19;;;;;;;;;;;;;;;6.86;100.00;100270.87;5589373;31;34854;-69
2023/04/20 01:42:22;;;;;;;;;;;;;;;6.72;100.00;100268.72;5589289;31;34316;-69
2023/04/20 01:45:25;;;;;;;;;;;;;;;6.82;100.00;100266.03;5588865;31;34147;-69
2023/04/20 01:48:27;;;;;;;;;;;;;;;6.85;100.00;100266.56;5588641;31;35075;-69
2023/04/20 01:51:29;;;;;;;;;;;;;;;6.70;100.00;100264.56;5575013;31;34777;-68
2023/04/20 01:54:32;;;;;;;;;;;;;;;6.71;100.00;100269.69;5589045;31;34831;-68
2023/04/20 01:57:35;;;;;;;;;;;;;;;6.85;100.00;100261.28;5575041;31;34792;-68
2023/04/20 02:00:38;;;;;;;;;;;;;;;6.92;100.00;100261.53;5588630;31;34974;-68
2023/04/20 02:03:41;;;;;;;;;;;;;;;6.88;100.00;100262.78;5588670;31;34413;-69
2023/04/20 02:06:44;;;;;;;;;;;;;;;6.79;100.00;100259.22;5588806;31;34172;-69
2023/04/20 02:09:46;;;;;;;;;;;;;;;6.77;100.00;100266.47;5589429;31;34787;-68
2023/04/20 02:12:49;;;;;;;;;;;;;;;6.82;100.00;100256.31;5591026;31;34202;-68
2023/04/20 02:15:52;;;;;;;;;;;;;;;6.74;100.00;100252.75;5591082;31;34671;-68
2023/04/20 02:18:56;;;;;;;;;;;;;;;6.62;100.00;100254.75;5591028;31;35030;-69
2023/04/20 02:22:00;;;;;;;;;;;;;;;6.65;100.00;100257.09;5591027;31;34980;-69
2023/04/20 02:25:03;;;;;;;;;;;;;;;6.49;100.00;100270.03;5591219;31;34249;-69
2023/04/20 02:28:06;;;;;;;;;;;;;;;6.44;100.00;100262.56;5590925;31;34100;-69
2023/04/20 02:31:08;;;;;;;;;;;;;;;6.50;100.00;100267.28;5591158;31;34807;-69
2023/04/20 02:34:11;;;;;;;;;;;;;;;6.54;100.00;100260.72;5591220;31;34861;-68
2023/04/20 02:37:14;;;;;;;;;;;;;;;6.40;100.00;100266.47;5591193;31;34780;-69
2023/04/20 02:40:17;;;;;;;;;;;;;;;6.52;100.00;100269.78;5590700;31;34161;-69
2023/04/20 02:43:19;;;;;;;;;;;;;;;6.37;100.00;100266.78;5590727;31;34886;-69
2023/04/20 02:46:22;;;;;;;;;;;;;;;6.24;100.00;100271.53;5590750;31;34823;-69
2023/04/20 02:49:25;;;;;;;;;;;;;;;6.21;100.00;100268.31;5590973;31;35102;-69
2023/04/20 02:52:27;;;;;;;;;;;;;;;6.15;100.00;100268.91;5590762;31;34781;-69
2023/04/20 02:55:31;;;;;;;;;;;;;;;6.12;100.00;100277.91;5590800;31;34424;-69
2023/04/20 02:58:34;;;;;;;;;;;;;;;6.26;100.00;100282.72;5590677;31;35009;-69
2023/04/20 03:01:37;;;;;;;;;;;;;;;6.29;100.00;100274.56;5590723;31;34795;-69
2023/04/20 03:04:46;;;;;;;;;;;;;;;6.20;100.00;100282.47;5590842;31;35027;-69
2023/04/20 03:07:49;;;;;;;;;;;;;;;6.30;100.00;100288.53;5590691;31;34238;-69
2023/04/20 03:10:52;;;;;;;;;;;;;;;6.16;100.00;100287.19;5590615;31;34876;-69
2023/04/20 03:13:55;;;;;;;;;;;;;;;6.12;100.00;100293.72;5590544;31;34167;-69
2023/04/20 03:16:57;;;;;;;;;;;;;;;6.03;100.00;100295.41;5590610;31;34177;-69
2023/04/20 03:20:00;;;;;;;;;;;;;;;6.02;100.00;100293.75;5590314;31;34472;-69
2023/04/20 03:23:03;;;;;;;;;;;;;;;5.99;100.00;100287.94;5590510;31;34874;-69
2023/04/20 03:26:05;;;;;;;;;;;;;;;5.97;100.00;100289.84;5590744;31;34866;-70
2023/04/20 03:29:09;;;;;;;;;;;;;;;5.93;100.00;100281.41;5590357;31;34186;-70
2023/04/20 03:32:12;;;;;;;;;;;;;;;5.92;100.00;100287.66;5590449;31;34205;-70
2023/04/20 03:35:16;;;;;;;;;;;;;;;5.89;100.00;100281.84;5590403;31;34149;-70
2023/04/20 03:38:20;;;;;;;;;;;;;;;5.89;100.00;100293.22;5590743;31;34693;-70
2023/04/20 03:41:22;;;;;;;;;;;;;;;5.93;100.00;100289.31;5590340;31;35119;-70
2023/04/20 03:44:25;;;;;;;;;;;;;;;5.97;100.00;100288.06;5590444;31;34862;-70
2023/04/20 03:47:27;;;;;;;;;;;;;;;6.00;100.00;100298.28;5576353;31;34207;-70
2023/04/20 03:50:30;;;;;;;;;;;;;;;6.05;100.00;100297.91;5590206;31;34963;-70
2023/04/20 03:53:33;;;;;;;;;;;;;;;6.08;100.00;100308.16;5590602;31;34328;-69
2023/04/20 03:56:36;;;;;;;;;;;;;;;6.23;100.00;100312.00;5590416;31;33736;-70
2023/04/20 03:59:39;;;;;;;;;;;;;;;6.22;100.00;100301.59;5590592;31;34761;-70
2023/04/20 04:02:42;;;;;;;;;;;;;;;6.28;100.00;100304.50;5590174;31;34045;-70
2023/04/20 04:05:45;;;;;;;;;;;;;;;6.30;100.00;100302.56;5590064;31;34373;-70
2023/04/20 04:08:48;;;;;;;;;;;;;;;6.38;100.00;100301.84;5576261;31;34938;-70
2023/04/20 04:11:50;;;;;;;;;;;;;;;6.51;100.00;100303.19;5590221;31;34092;-70
2023/04/20 04:14:53;;;;;;;;;;;;;;;6.55;100.00;100309.00;5590110;31;34016;-70
2023/04/20 04:17:57;;;;;;;;;;;;;;;6.75;100.00;100299.22;5590365;31;34710;-70
2023/04/20 04:20:59;;;;;;;;;;;;;;;6.75;100.00;100313.25;5590207;31;34423;-70
2023/04/20 04:24:03;;;;;;;;;;;;;;;6.96;100.00;100311.22;5590167;31;34273;-70
2023/04/20 04:27:07;;;;;;;;;;;;;;;6.98;100.00;100311.03;5590103;31;34391;-70
2023/04/20 04:30:11;;;;;;;;;;;;;;;6.99;100.00;100307.44;5590238;31;34865;-70
2023/04/20 04:33:17;;;;;;;;;;;;;;;6.97;100.00;100306.78;5589228;31;34256;-70
2023/04/20 04:36:20;;;;;;;;;;;;;;;7.00;100.00;100311.75;5590272;31;34118;-70
2023/04/20 04:39:23;;;;;;;;;;;;;;;7.05;100.00;100308.66;5589917;31;34764;-70
2023/04/20 04:42:26;;;;;;;;;;;;;;;7.08;100.00;100306.56;5589679;31;34219;-70
2023/04/20 04:45:30;;;;;;;;;;;;;;;7.17;100.00;100310.09;5589395;31;34327;-70
2023/04/20 04:48:34;;;;;;;;;;;;;;;7.25;100.00;100316.34;5575998;31;34310;-70
2023/04/20 04:51:38;;;;;;;;;;;;;;;7.33;100.00;100311.13;5589653;31;34391;-70
2023/04/20 04:54:41;;;;;;;;;;;;;;;7.42;100.00;100306.75;5589566;31;34847;-69
2023/04/20 04:57:43;;;;;;;;;;;;;;;7.55;100.00;100314.34;5589742;31;34214;-71
2023/04/20 05:00:47;;;;;;;;;;;;;;;7.69;100.00;100319.94;5589509;31;34172;-71
2023/04/20 05:03:49;;;;;;;;;;;;;;;7.77;100.00;100314.72;5589706;31;34882;-70
2023/04/20 05:06:51;;;;;;;;;;;;;;;7.87;100.00;100320.75;5589704;31;34822;-71
2023/04/20 05:09:54;;;;;;;;;;;;;;;7.92;100.00;100314.16;5589552;31;34846;-71
2023/04/20 05:12:59;;;;;;;;;;;;;;;7.95;100.00;100314.69;5589285;31;34019;-70
2023/04/20 05:16:02;;;;;;;;;;;;;;;8.18;100.00;100318.50;5589551;31;34156;-69
2023/04/20 05:19:05;;;;;;;;;;;;;;;8.15;100.00;100324.09;5588978;31;34769;-70
2023/04/20 05:22:07;;;;;;;;;;;;;;;8.27;100.00;100325.53;5589219;31;34470;-70
2023/04/20 05:25:10;;;;;;;;;;;;;;;8.46;100.00;100331.63;5588890;31;34362;-70
2023/04/20 05:28:15;;;;;;;;;;;;;;;8.63;100.00;100334.22;5588903;31;34140;-71
2023/04/20 05:31:19;;;;;;;;;;;;;;;8.66;100.00;100333.09;5588972;31;34718;-71
2023/04/20 05:34:21;;;;;;;;;;;;;;;8.72;100.00;100335.91;5588945;31;34839;-71
2023/04/20 05:37:24;;;;;;;;;;;;;;;8.84;100.00;100336.47;5588878;31;34764;-70
2023/04/20 05:40:26;;;;;;;;;;;;;;;8.82;100.00;100346.38;5588598;31;34277;-70
2023/04/20 05:43:32;;;;;;;;;;;;;;;8.80;100.00;100348.38;5589272;31;34226;-70
2023/04/20 05:46:35;;;;;;;;;;;;;;;8.99;100.00;100350.78;5576754;31;34961;-70
2023/04/20 05:49:39;;;;;;;;;;;;;;;9.00;100.00;100347.16;5577267;31;34949;-70
2023/04/20 05:52:42;;;;;;;;;;;;;;;9.08;100.00;100349.81;5590463;31;34468;-71
2023/04/20 05:55:44;;;;;;;;;;;;;;;9.15;100.00;100347.34;5590729;31;34774;-71
2023/04/20 05:58:47;;;;;;;;;;;;;;;9.33;100.00;100356.06;5590809;31;33150;-70
2023/04/20 06:01:50;;;;;;;;;;;;;;;9.50;100.00;100359.56;5590548;31;34301;-70
2023/04/20 06:04:53;;;;;;;;;;;;;;;9.72;100.00;100366.91;5590558;31;34300;-70
2023/04/20 06:07:56;;;;;;;;;;;;;;;9.96;100.00;100366.13;5590796;31;34135;-71
2023/04/20 06:10:59;;;;;;;;;;;;;;;9.98;100.00;100361.47;5590616;31;34019;-69
2023/04/20 06:14:01;;;;;;;;;;;;;;;10.09;100.00;100362.97;5590676;31;34508;-70
2023/04/20 06:17:04;;;;;;;;;;;;;;;10.22;100.00;100363.34;5590731;31;34977;-70
2023/04/20 06:20:10;;;;;;;;;;;;;;;10.30;100.00;100369.50;5590896;31;34046;-70
2023/04/20 06:23:13;;;;;;;;;;;;;;;10.59;100.00;100366.31;5590418;31;34436;-71
2023/04/20 06:26:18;;;;;;;;;;;;;;;10.77;100.00;100368.75;5590287;31;34224;-70
2023/04/20 06:29:21;;;;;;;;;;;;;;;10.87;100.00;100369.41;5591011;31;34507;-70
2023/04/20 06:32:24;;;;;;;;;;;;;;;10.92;100.00;100367.06;5590278;31;34735;-71
2023/04/20 06:35:26;;;;;;;;;;;;;;;11.06;100.00;100374.31;5590886;31;34183;-68
2023/04/20 06:38:29;;;;;;;;;;;;;;;11.37;100.00;100373.56;5590472;31;34115;-69
2023/04/20 06:41:31;;;;;;;;;;;;;;;11.40;100.00;100382.00;5590490;31;34142;-70
2023/04/20 06:44:40;;;;;;;;;;;;;;;11.67;100.00;100380.69;5590437;31;34160;-70
2023/04/20 06:47:42;;;;;;;;;;;;;;;11.84;100.00;100376.13;5590857;31;34813;-71
2023/04/20 06:50:48;;;;;;;;;;;;;;;12.35;100.00;100363.94;5590660;31;34553;-71
2023/04/20 06:53:51;;;;;;;;;;;;;;;12.77;100.00;100374.88;5590760;31;35172;-70
2023/04/20 06:56:54;;;;;;;;;;;;;;;13.13;100.00;100368.84;5589895;31;34790;-71
2023/04/20 06:59:57;;;;;;;;;;;;;;;13.85;95.48;100375.03;5590467;31;34060;-71
2023/04/20 07:03:01;;;;;;;;;;;;;;;14.35;89.58;100372.25;5590434;31;34218;-70
2023/04/20 07:06:06;;;;;;;;;;;;;;;14.94;81.87;100376.44;5590736;31;34190;-69
2023/04/20 07:09:08;;;;;;;;;;;;;;;15.77;76.97;100380.75;5591237;31;34805;-70
2023/04/20 07:12:14;;;;;;;;;;;;;;;15.15;76.63;100379.81;5590452;31;34249;-70
2023/04/20 07:15:16;;;;;;;;;;;;;;;15.48;76.13;100377.34;5590648;31;34307;-70
2023/04/20 07:18:21;;;;;;;;;;;;;;;15.70;70.97;100380.72;5590440;31;34136;-71
2023/04/20 07:21:24;;;;;;;;;;;;;;;16.28;67.02;100376.53;5590278;31;34805;-73
2023/04/20 07:24:27;;;;;;;;;;;;;;;17.20;61.42;100381.81;5590405;31;34556;-71
2023/04/20 07:27:34;;;;;;;;;;;;;;;17.09;59.27;100390.50;5590233;31;34283;-70
2023/04/20 07:30:36;;;;;;;;;;;;;;;16.91;59.51;100383.13;5590419;31;35063;-69
2023/04/20 07:33:39;;;;;;;;;;;;;;;17.29;57.30;100388.59;5590218;31;34742;-70
2023/04/20 07:36:42;;;;;;;;;;;;;;;17.08;58.04;100383.50;5590079;31;34991;-71
2023/04/20 07:39:44;;;;;;;;;;;;;;;17.15;57.67;100386.16;5589981;31;34897;-70
2023/04/20 07:42:47;;;;;;;;;;;;;;;17.89;52.98;100389.19;5590149;31;34082;-71
2023/04/20 07:45:49;;;;;;;;;;;;;;;16.50;56.23;100390.56;5589958;31;34850;-70
2023/04/20 07:48:51;;;;;;;;;;;;;;;16.15;57.66;100384.53;5590299;31;34078;-68
2023/04/20 07:51:54;;;;;;;;;;;;;;;15.90;59.29;100386.13;5589855;31;34200;-70
2023/04/20 07:55:12;;;;;;;;;;;;;;;15.84;61.01;100386.94;5589716;31;34355;-69
2023/04/20 07:58:16;;;;;;;;;;;;;;;16.44;58.78;100381.47;5590594;31;34838;-71
2023/04/20 08:01:22;;;;;;;;;;;;;;;17.80;53.21;100380.59;5589828;31;34122;-70
2023/04/20 08:04:25;;;;;;;;;;;;;;;18.10;50.75;100388.88;5576354;31;34117;-69
2023/04/20 08:07:28;;;;;;;;;;;;;;;18.21;51.08;100388.16;5590357;31;34681;-70
2023/04/20 08:10:31;;;;;;;;;;;;;;;18.16;51.35;100382.63;5589796;31;34585;-70
2023/04/20 08:13:34;;;;;;;;;;;;;;;20.23;47.73;100387.25;5589683;31;34173;-69
2023/04/20 08:16:37;;;;;;;;;;;;;;;19.30;48.30;100390.31;5589664;31;34179;-70
2023/04/20 08:19:40;;;;;;;;;;;;;;;21.62;43.83;100379.16;5589837;31;34871;-70
2023/04/20 08:22:46;;;;;;;;;;;;;;;21.90;40.84;100382.91;5590241;31;34240;-69
2023/04/20 08:25:48;;;;;;;;;;;;;;;22.43;39.85;100386.06;5589521;31;34391;-70
2023/04/20 08:28:51;;;;;;;;;;;;;;;21.59;41.27;100379.63;5589601;31;34109;-71
2023/04/20 08:31:53;;;;;;;;;;;;;;;20.68;42.78;100376.78;5589562;31;34789;-71
2023/04/20 08:34:56;;;;;;;;;;;;;;;21.31;40.95;100376.88;5589349;31;34854;-71
2023/04/20 08:37:58;;;;;;;;;;;;;;;21.60;40.54;100383.13;5589961;31;34811;-70
2023/04/20 08:41:01;;;;;;;;;;;;;;;20.21;44.41;100371.31;5589278;31;34211;-70
2023/04/20 08:44:04;;;;;;;;;;;;;;;21.25;41.93;100365.16;5589898;31;34747;-71
2023/04/20 08:47:08;;;;;;;;;;;;;;;21.45;41.75;100375.56;5589360;31;34009;-71
2023/04/20 08:50:11;;;;;;;;;;;;;;;19.83;43.38;100368.97;5589294;31;34143;-70
2023/04/20 08:53:14;;;;;;;;;;;;;;;20.72;41.94;100368.00;5589785;31;34669;-70
2023/04/20 08:56:16;;;;;;;;;;;;;;;20.57;41.99;100373.06;5575757;31;35003;-71
2023/04/20 08:59:19;;;;;;;;;;;;;;;20.91;40.84;100367.91;5589168;31;34161;-73
2023/04/20 09:02:21;;;;;;;;;;;;;;;22.68;38.92;100374.00;5589336;31;34032;-70
2023/04/20 09:05:28;;;;;;;;;;;;;;;21.85;40.17;100370.13;5589318;31;34863;-70
2023/04/20 09:08:38;;;;;;;;;;;;;;;23.61;36.98;100370.47;5589700;31;34787;-71
2023/04/20 09:11:41;;;;;;;;;;;;;;;23.93;37.48;100376.78;5589430;31;34643;-72
2023/04/20 09:14:44;;;;;;;;;;;;;;;25.01;33.85;100375.56;5588901;31;34255;-70
2023/04/20 09:17:46;;;;;;;;;;;;;;;23.68;36.33;100373.78;5588464;31;34141;-71
2023/04/20 09:20:49;;;;;;;;;;;;;;;22.70;35.68;100367.34;5589121;31;34837;-70
2023/04/20 09:24:05;;;;;;;;;;;;;;;20.68;40.50;100366.81;5589094;31;34192;-70
2023/04/20 09:27:14;;;;;;;;;;;;;;;21.48;40.09;100363.47;5588959;31;34372;-70
2023/04/20 09:30:17;;;;;;;;;;;;;;;22.49;37.28;100362.63;5588531;31;34752;-71
2023/04/20 09:33:26;;;;;;;;;;;;;;;23.44;37.00;100370.50;5588714;31;34249;-71
2023/04/20 09:36:38;;;;;;;;;;;;;;;21.56;36.96;100366.63;5588591;31;34158;-70
2023/04/20 09:39:42;;;;;;;;;;;;;;;21.48;38.53;100361.59;5588627;31;34163;-71
2023/04/20 09:42:47;;;;;;;;;;;;;;;22.49;37.40;100360.75;5588235;31;34892;-71
2023/04/20 09:45:50;;;;;;;;;;;;;;;24.07;34.81;100363.63;5589659;31;34794;-73
2023/04/20 09:48:54;;;;;;;;;;;;;;;20.83;39.08;100361.78;5590144;31;34070;-71
2023/04/20 09:51:56;;;;;;;;;;;;;;;22.85;35.98;100361.34;5588662;31;34380;-71
2023/04/20 09:54:59;;;;;;;;;;;;;;;;;;5588129;31;34731;-70
2023/04/20 09:58:02;;;;;;;;;;;;;;;24.54;32.90;100352.97;5588530;31;33059;-71
2023/04/20 10:01:08;;;;;;;;;;;;;;;23.24;35.12;100349.41;5588407;31;34224;-72
2023/04/20 10:04:13;;;;;;;;;;;;;;;21.50;38.85;100345.16;5564180;31;34820;-69
2023/04/20 10:07:22;;;;;;;;;;;;;;;19.24;41.85;100339.28;5574794;31;34191;-72
2023/04/20 10:10:25;;;;;;;;;;;;;;;18.45;44.59;100332.81;5574607;31;34104;-69
2023/04/20 10:13:32;;;;;;;;;;;;;;;18.89;43.80;100341.72;5588092;31;34809;-71
2023/04/20 10:16:35;;;;;;;;;;;;;;;18.39;44.63;100336.41;5588090;31;34873;-70
2023/04/20 10:19:44;;;;;;;;;;;;;;;18.23;44.53;100329.69;5587886;31;34820;-71
2023/04/20 10:22:47;;;;;;;;;;;;;;;17.60;46.33;100331.56;5588131;31;34242;-70
2023/04/20 10:25:57;;;;;;;;;;;;;;;18.20;44.94;100326.62;5587875;31;32671;-71
2023/04/20 10:28:59;;;;;;;;;;;;;;;18.17;44.58;100322.50;5574164;31;34285;-67
2023/04/20 10:32:04;;;;;;;;;;;;;;;18.49;45.05;100330.53;5590390;31;34802;-70
2023/04/20 10:35:09;;;;;;;;;;;;;;;18.77;45.49;100327.38;5591090;31;33889;-69
2023/04/20 10:38:11;;;;;;;;;;;;;;;18.75;44.03;100319.53;5590457;31;34187;-69
2023/04/20 10:41:14;;;;;;;;;;;;;;;18.04;45.20;100313.75;5591706;31;34456;-69
2023/04/20 10:44:17;;;;;;;;;;;;;;;20.03;42.38;100316.69;5590460;31;34716;-72
2023/04/20 10:47:30;;;;;;;;;;;;;;;21.81;39.24;100322.25;5590251;31;34279;-70
2023/04/20 10:50:32;;;;;;;;;;;;;;;20.21;40.34;100313.91;5576963;31;34204;-70
2023/04/20 10:53:35;;;;;;;;;;;;;;;19.66;40.48;100308.72;5590614;31;34723;-69
2023/04/20 10:56:40;;;;;;;;;;;;;;;20.80;39.71;100310.22;5590479;31;34181;-69
2023/04/20 10:59:44;;;;;;;;;;;;;;;21.41;38.95;100308.81;5590316;31;34508;-68
2023/04/20 11:02:55;;;;;;;;;;;;;;;21.13;38.83;100306.88;5590752;31;34374;-69
2023/04/20 11:06:02;;;;;;;;;;;;;;;21.98;36.70;100304.22;5590398;31;34319;-71
2023/04/20 11:09:21;;;;;;;;;;;;;;;25.71;31.56;100302.78;5590589;31;34228;-69
2023/04/20 11:12:24;;;;;;;;;;;;;;;23.74;33.24;100284.19;5590311;31;34805;-69
2023/04/20 11:15:33;;;;;;;;;;;;;;;21.51;36.68;100293.63;5590351;31;34505;-70
2023/04/20 11:18:36;;;;;;;;;;;;;;;26.52;30.33;100295.47;5590255;31;34863;-70
2023/04/20 11:21:39;;;;;;;;;;;;;;;25.90;30.53;100293.81;5589900;31;34785;-69
2023/04/20 11:24:43;;;;;;;;;;;;;;;29.58;26.20;100290.97;5590090;31;34281;-69
2023/04/20 11:27:45;;;;;;;;;;;;;;;27.06;28.06;100281.22;5590132;31;34244;-71
2023/04/20 11:30:49;;;;;;;;;;;;;;;26.27;29.09;100284.63;5590109;31;35049;-67
2023/04/20 11:33:52;;;;;;;;;;;;;;;21.27;36.34;100261.56;5590237;31;34149;-70
2023/04/20 11:36:55;;;;;;;;;;;;;;;20.46;38.61;100270.63;5590114;31;34373;-70
2023/04/20 11:39:58;;;;;;;;;;;;;;;23.18;34.65;100271.13;5590032;31;34432;-70
2023/04/20 11:43:03;;;;;;;;;;;;;;;25.70;30.25;100268.56;5589659;31;34875;-69
2023/04/20 11:46:15;;;;;;;;;;;;;;;26.70;28.87;100275.84;5589987;31;34855;-69
2023/04/20 11:49:19;;;;;;;;;;;;;;;22.56;31.75;100274.03;5590002;31;34273;-70
2023/04/20 11:52:22;;;;;;;;;;;;;;;20.98;35.64;100275.00;5563202;31;34259;-69
2023/04/20 11:55:24;;;;;;;;;;;;;;;20.32;36.67;100270.87;5563413;31;34121;-70
2023/04/20 11:58:29;;;;;;;;;;;;;;;21.77;34.88;100276.03;5590250;31;34340;-69
2023/04/20 12:01:32;;;;;;;;;;;;;;;24.74;30.82;100266.25;5589855;31;34338;-70
2023/04/20 12:04:35;;;;;;;;;;;;;;;23.86;31.61;100272.41;5576557;31;34796;-70
2023/04/20 12:07:38;;;;;;;;;;;;;;;26.23;27.91;100267.22;5590026;31;34854;-71
2023/04/20 12:10:40;;;;;;;;;;;;;;;26.53;27.75;100267.16;5590365;31;32450;-70
2023/04/20 12:13:43;;;;;;;;;;;;;;;28.07;26.12;100278.69;5589927;31;34820;-70
2023/04/20 12:16:45;;;;;;;;;;;;;;;28.34;25.69;100256.38;5589934;31;34820;-69
2023/04/20 12:19:48;;;;;;;;;;;;;;;29.26;25.15;100259.69;5575805;31;34087;-69
2023/04/20 12:22:50;;;;;;;;;;;;;;;31.25;23.44;100260.63;5589741;31;34770;-70
2023/04/20 12:25:53;;;;;;;;;;;;;;;31.79;22.25;100255.00;5589696;31;34814;-71
2023/04/20 12:28:57;;;;;;;;;;;;;;;33.19;20.50;100258.97;5590244;31;32331;-69
2023/04/20 12:31:59;;;;;;;;;;;;;;;31.51;22.01;100256.19;5589697;31;34391;-70
2023/04/20 12:35:02;;;;;;;;;;;;;;;28.61;23.99;100242.16;5589825;31;34695;-70
2023/04/20 12:38:05;;;;;;;;;;;;;;;30.79;21.13;100245.09;5589732;31;34844;-70
2023/04/20 12:41:12;;;;;;;;;;;;;;;26.19;25.99;100245.16;5589774;31;34472;-71
2023/04/20 12:44:14;;;;;;;;;;;;;;;29.93;22.58;100243.94;5589726;31;34728;-70
2023/04/20 12:47:17;;;;;;;;;;;;;;;27.14;24.34;100234.31;5589436;31;34860;-70
2023/04/20 12:50:20;;;;;;;;;;;;;;;29.02;23.15;100236.22;5589773;31;34823;-70
2023/04/20 12:53:22;;;;;;;;;;;;;;;30.20;22.12;100235.81;5588809;31;34185;-71
2023/04/20 12:56:25;;;;;;;;;;;;;;;32.23;20.08;100228.69;5589494;31;34372;-71
2023/04/20 12:59:28;;;;;;;;;;;;;;;35.12;18.04;100231.97;5589540;31;34201;-71
2023/04/20 13:02:31;;;;;;;;;;;;;;;31.37;21.18;100226.06;5589432;31;35002;-71
2023/04/20 13:05:34;;;;;;;;;;;;;;;35.76;17.57;100234.44;5589353;31;34378;-70
2023/04/20 13:08:36;;;;;;;;;;;;;;;34.12;18.75;100222.69;5589654;31;34950;-70
2023/04/20 13:11:39;;;;;;;;;;;;;;;31.46;20.96;100217.94;5589729;31;34148;-71
2023/04/20 13:14:42;;;;;;;;;;;;;;;33.73;18.46;100227.28;5589427;31;34813;-70
2023/04/20 13:17:45;;;;;;;;;;;;;;;34.91;17.63;100222.06;5589345;31;34706;-70
2023/04/20 13:20:48;;;;;;;;;;;;;;;35.47;17.78;100217.94;5589081;31;34197;-70
2023/04/20 13:23:50;;;;;;;;;;;;;;;30.33;21.45;100208.78;5575460;31;34197;-70
2023/04/20 13:26:56;;;;;;;;;;;;;;;27.61;24.39;100204.62;5589113;31;34822;-70
2023/04/20 13:29:58;;;;;;;;;;;;;;;24.71;28.54;100200.88;5589075;31;34791;-70
2023/04/20 13:33:01;;;;;;;;;;;;;;;25.84;27.24;100209.84;5588932;31;34420;-69
2023/04/20 13:36:03;;;;;;;;;;;;;;;25.04;27.21;100195.03;5588764;31;34333;-70
2023/04/20 13:39:06;;;;;;;;;;;;;;;27.48;24.35;100201.69;5588453;31;34059;-70
2023/04/20 13:42:09;;;;;;;;;;;;;;;26.82;25.57;100199.31;5588057;31;34400;-70
2023/04/20 13:45:12;;;;;;;;;;;;;;;25.78;26.03;100194.62;5574392;31;34764;-70
2023/04/20 13:48:14;;;;;;;;;;;;;;;25.05;27.78;100188.53;5588232;31;34698;-69
2023/04/20 13:51:16;;;;;;;;;;;;;;;21.83;32.14;100191.34;5588337;31;34272;-70
2023/04/20 13:54:20;;;;;;;;;;;;;;;22.11;30.77;100201.25;5574964;31;34329;-70
2023/04/20 13:57:23;;;;;;;;;;;;;;;23.06;29.74;100179.25;5588556;31;34251;-69
2023/04/20 14:00:26;;;;;;;;;;;;;;;26.49;26.29;100189.09;5587899;31;34082;-69
2023/04/20 14:03:28;;;;;;;;;;;;;;;31.34;20.39;100187.50;5587893;31;34366;-70
2023/04/20 14:06:31;;;;;;;;;;;;;;;31.01;20.72;100189.59;5577161;31;34852;-69
2023/04/20 14:09:33;;;;;;;;;;;;;;;27.46;23.50;100177.44;5590667;31;34428;-69
2023/04/20 14:12:36;;;;;;;;;;;;;;;26.20;25.30;100178.81;5590874;31;34299;-69
2023/04/20 14:15:39;;;;;;;;;;;;;;;26.43;25.24;100172.00;5590253;31;34987;-70
2023/04/20 14:18:41;;;;;;;;;;;;;;;26.26;25.14;100163.31;5590114;31;35081;-70
2023/04/20 14:21:46;;;;;;;;;;;;;;;25.48;26.59;100165.53;5590312;31;34379;-68
2023/04/20 14:24:48;;;;;;;;;;;;;;;26.19;25.26;100157.34;5590969;31;34705;-69
2023/04/20 14:27:51;;;;;;;;;;;;;;;27.61;24.07;100166.47;5590523;31;34147;-69
2023/04/20 14:30:53;;;;;;;;;;;;;;;27.35;24.69;100154.12;5590436;31;34865;-70
2023/04/20 14:33:56;;;;;;;;;;;;;;;28.30;22.82;100151.63;5590209;31;34291;-70
2023/04/20 14:36:58;;;;;;;;;;;;;;;25.70;26.51;100155.25;5590272;31;34572;-69
2023/04/20 14:40:01;;;;;;;;;;;;;;;23.25;29.23;100145.34;5590153;31;34178;-68
2023/04/20 14:43:03;;;;;;;;;;;;;;;22.16;31.45;100138.34;5576227;31;34910;-70
2023/04/20 14:46:06;;;;;;;;;;;;;;;21.85;33.24;100143.28;5584340;31;173877;-70
2023/04/20 14:49:09;;;;;;;;;;;;;;;20.95;34.20;100148.72;5590094;31;34242;-70
2023/04/20 14:52:12;;;;;;;;;;;;;;;20.95;34.29;100154.12;5590204;31;34295;-70
2023/04/20 14:55:14;;;;;;;;;;;;;;;20.58;35.03;100144.75;5590023;31;34285;-70
2023/04/20 14:58:18;;;;;;;;;;;;;;;20.67;33.97;100146.81;5590175;31;34119;-70
2023/04/20 15:01:20;;;;;;;;;;;;;;;20.47;34.37;100143.75;5590137;31;34217;-71
2023/04/20 15:04:23;;;;;;;;;;;;;;;20.29;34.61;100141.13;5575925;31;35044;-71
2023/04/20 15:07:27;;;;;;;;;;;;;;;20.39;35.04;100136.00;5589457;31;34440;-70
2023/04/20 15:10:33;;;;;;;;;;;;;;;20.47;34.06;100135.66;5589967;31;34325;-69
2023/04/20 15:13:41;;;;;;;;;;;;;;;20.53;34.67;100140.06;5589938;31;34073;-69
2023/04/20 15:16:43;;;;;;;;;;;;;;;20.01;35.02;100130.28;5589461;31;34232;-68
2023/04/20 15:19:46;;;;;;;;;;;;;;;19.93;35.77;100132.31;5589935;31;34287;-69
2023/04/20 15:22:49;;;;;;;;;;;;;;;19.89;35.94;100136.53;5590257;31;34135;-69
2023/04/20 15:25:51;;;;;;;;;;;;;;;19.75;35.66;100142.37;5590463;31;34193;-68
2023/04/20 15:28:55;;;;;;;;;;;;;;;19.58;36.86;100136.00;5590011;31;32808;-69
2023/04/20 15:31:57;;;;;;;;;;;;;;;19.88;35.67;100131.34;5590082;31;34209;-68
2023/04/20 15:35:00;;;;;;;;;;;;;;;19.94;35.48;100142.00;5576247;31;34408;-69
2023/04/20 15:38:03;;;;;;;;;;;;;;;20.28;34.79;100143.00;5589473;31;34799;-68
2023/04/20 15:41:06;;;;;;;;;;;;;;;20.26;35.60;100139.75;5590078;31;34835;-69
2023/04/20 15:44:08;;;;;;;;;;;;;;;20.19;35.44;100143.62;5589515;31;34169;-68